createdAt,value
2018-09-26T00:02:43.140Z,2.90
2018-09-26T00:05:12.306Z,3.00
2018-09-26T00:07:41.288Z,3.10
2018-09-26T01:02:36.564Z,2.20
2018-09-26T01:05:05.578Z,2.30
2018-09-26T01:07:34.590Z,2.50
2018-09-26T01:10:03.597Z,2.60
2018-09-26T02:02:36.276Z,1.50
2018-09-26T02:05:05.276Z,1.50
2018-09-26T02:07:34.329Z,1.70
2018-09-26T02:10:03.323Z,1.80
2018-09-26T03:02:37.877Z,0.40
2018-09-26T03:05:06.919Z,0.50
2018-09-26T03:07:35.894Z,0.70
2018-09-26T03:10:04.955Z,0.90
2018-09-26T04:02:36.976Z,0.20
2018-09-26T04:05:06.037Z,0.30
2018-09-26T04:07:34.996Z,0.40
2018-09-26T04:10:03.995Z,0.70
2018-09-26T05:02:36.456Z,1.50
2018-09-26T05:05:05.636Z,1.70
2018-09-26T05:07:34.861Z,2.00
2018-09-26T05:10:03.893Z,2.40
2018-09-26T06:02:36.462Z,4.40
2018-09-26T06:05:05.536Z,4.60
2018-09-26T06:07:34.573Z,4.90
2018-09-26T06:10:03.565Z,5.30
2018-09-26T07:02:36.621Z,7.10
2018-09-26T07:05:05.602Z,7.10
2018-09-26T07:07:34.624Z,7.40
2018-09-26T07:10:03.653Z,7.60
2018-09-26T08:02:37.513Z,9.70
2018-09-26T08:05:06.600Z,9.70
2018-09-26T08:07:35.629Z,9.90
2018-09-26T08:10:04.689Z,9.90
2018-09-26T09:02:36.547Z,10.90
2018-09-26T09:05:05.545Z,11.10
2018-09-26T09:07:34.533Z,11.30
2018-09-26T09:10:03.556Z,11.50
2018-09-26T10:02:37.603Z,12.60
2018-09-26T10:05:06.535Z,13.00
2018-09-26T10:07:35.526Z,13.20
2018-09-26T10:10:04.528Z,13.30
2018-09-26T11:02:36.117Z,13.60
2018-09-26T11:05:05.409Z,13.80
2018-09-26T11:07:34.228Z,14.00
2018-09-26T11:10:03.062Z,14.20
2018-09-26T12:02:37.105Z,12.40
2018-09-26T12:05:05.968Z,12.40
2018-09-26T12:07:34.876Z,12.60
2018-09-26T12:10:03.701Z,12.80
2018-09-26T13:02:37.391Z,12.10
2018-09-26T13:05:06.241Z,12.20
2018-09-26T13:07:35.119Z,12.30
2018-09-26T13:10:04.024Z,12.50
2018-09-26T14:02:36.466Z,11.60
2018-09-26T14:05:05.592Z,11.60
2018-09-26T14:07:34.448Z,11.80
2018-09-26T14:10:03.318Z,11.90
2018-09-26T15:02:36.692Z,9.10
2018-09-26T15:05:05.549Z,9.00
2018-09-26T15:07:34.391Z,9.10
2018-09-26T16:02:36.441Z,7.70
2018-09-26T16:05:05.765Z,7.70
2018-09-26T16:07:34.652Z,7.80
2018-09-26T16:10:04.657Z,7.90
2018-09-26T17:02:41.529Z,7.50
2018-09-26T17:05:10.469Z,7.50
2018-09-26T17:07:39.355Z,7.70
2018-09-26T18:02:37.121Z,7.60
2018-09-26T18:05:06.001Z,7.70
2018-09-26T18:07:34.852Z,7.80
2018-09-26T18:10:03.750Z,7.90
2018-09-26T19:02:37.489Z,7.50
2018-09-26T19:05:06.575Z,7.50
2018-09-26T19:07:35.412Z,7.60
2018-09-26T19:10:05.915Z,7.70
2018-09-26T20:02:36.410Z,7.40
2018-09-26T20:05:05.503Z,7.50
2018-09-26T20:07:34.351Z,7.60
2018-09-26T20:10:03.283Z,7.70
2018-09-26T21:02:37.485Z,7.90
2018-09-26T21:05:06.368Z,8.00
2018-09-26T21:07:35.281Z,8.10
2018-09-26T21:10:04.186Z,8.30
2018-09-26T22:02:36.462Z,8.40
2018-09-26T22:05:05.432Z,8.50
2018-09-26T22:07:34.248Z,8.60
2018-09-26T22:10:03.136Z,8.80
2018-09-26T22:12:31.993Z,9.00
2018-09-26T22:15:01.022Z,9.10
2018-09-26T22:17:30.052Z,9.20
2018-09-26T22:19:59.006Z,9.20
2018-09-26T22:22:27.836Z,9.40
2018-09-26T22:24:56.914Z,9.40
2018-09-26T22:27:25.794Z,9.50
2018-09-26T22:29:54.879Z,9.60
2018-09-26T22:32:23.792Z,9.60
2018-09-26T22:34:52.616Z,9.70
2018-09-26T22:37:21.451Z,9.60
2018-09-26T22:39:50.292Z,9.60
2018-09-26T22:42:19.163Z,9.60
2018-09-26T22:44:48.001Z,9.80
2018-09-26T22:47:16.871Z,9.70
2018-09-26T22:49:45.682Z,9.70
2018-09-26T22:52:21.987Z,9.80
2018-09-26T22:54:50.812Z,9.80
2018-09-26T22:57:19.694Z,9.90
2018-09-26T22:59:48.568Z,9.90
2018-09-26T23:02:17.432Z,10.00
2018-09-26T23:04:46.328Z,9.90
2018-09-26T23:07:15.225Z,9.90
2018-09-26T23:09:44.046Z,10.00
